sensor_id;sensor_type;location;lat;lon;timestamp;P1;durP1;ratioP1;P2;durP2;ratioP2
50821;SDS011;36794;51.212;6.980;2022-11-15T00:00:18;10.93;;;6.57;;
50821;SDS011;36794;51.212;6.980;2022-11-15T00:02:44;11.13;;;6.40;;
50821;SDS011;36794;51.212;6.980;2022-11-15T00:05:10;10.33;;;6.57;;
50821;SDS011;36794;51.212;6.980;2022-11-15T00:07:36;14.33;;;6.50;;
50821;SDS011;36794;51.212;6.980;2022-11-15T00:10:02;8.70;;;5.80;;
50821;SDS011;36794;51.212;6.980;2022-11-15T00:12:28;9.60;;;6.40;;
50821;SDS011;36794;51.212;6.980;2022-11-15T00:14:54;8.70;;;6.00;;
50821;SDS011;36794;51.212;6.980;2022-11-15T00:17:20;9.70;;;5.83;;
50821;SDS011;36794;51.212;6.980;2022-11-15T00:19:46;10.93;;;6.30;;
50821;SDS011;36794;51.212;6.980;2022-11-15T00:22:12;10.10;;;6.07;;
50821;SDS011;36794;51.212;6.980;2022-11-15T00:24:38;10.73;;;5.97;;
50821;SDS011;36794;51.212;6.980;2022-11-15T00:27:04;8.50;;;5.63;;
50821;SDS011;36794;51.212;6.980;2022-11-15T00:29:30;14.13;;;6.23;;
50821;SDS011;36794;51.212;6.980;2022-11-15T00:31:56;10.53;;;6.60;;
50821;SDS011;36794;51.212;6.980;2022-11-15T00:34:22;11.67;;;6.83;;
50821;SDS011;36794;51.212;6.980;2022-11-15T00:36:48;10.17;;;6.73;;
50821;SDS011;36794;51.212;6.980;2022-11-15T00:39:14;11.17;;;6.93;;
50821;SDS011;36794;51.212;6.980;2022-11-15T00:41:39;10.57;;;6.13;;
50821;SDS011;36794;51.212;6.980;2022-11-15T00:44:05;11.63;;;6.17;;
50821;SDS011;36794;51.212;6.980;2022-11-15T00:46:31;9.40;;;6.60;;
50821;SDS011;36794;51.212;6.980;2022-11-15T00:48:57;9.77;;;6.70;;
50821;SDS011;36794;51.212;6.980;2022-11-15T00:51:23;10.57;;;5.73;;
50821;SDS011;36794;51.212;6.980;2022-11-15T00:53:49;12.80;;;6.23;;
50821;SDS011;36794;51.212;6.980;2022-11-15T00:56:15;11.67;;;5.73;;
50821;SDS011;36794;51.212;6.980;2022-11-15T00:58:41;13.10;;;5.23;;
50821;SDS011;36794;51.212;6.980;2022-11-15T01:01:08;12.00;;;5.87;;
50821;SDS011;36794;51.212;6.980;2022-11-15T01:03:34;13.83;;;6.63;;
50821;SDS011;36794;51.212;6.980;2022-11-15T01:06:00;11.97;;;5.97;;
50821;SDS011;36794;51.212;6.980;2022-11-15T01:08:26;9.80;;;6.20;;
50821;SDS011;36794;51.212;6.980;2022-11-15T01:10:52;7.57;;;5.80;;
50821;SDS011;36794;51.212;6.980;2022-11-15T01:13:18;11.80;;;6.13;;
50821;SDS011;36794;51.212;6.980;2022-11-15T01:15:44;8.67;;;5.53;;
50821;SDS011;36794;51.212;6.980;2022-11-15T01:18:10;11.97;;;5.67;;
50821;SDS011;36794;51.212;6.980;2022-11-15T01:20:42;11.90;;;5.90;;
50821;SDS011;36794;51.212;6.980;2022-11-15T01:23:08;11.23;;;5.70;;
50821;SDS011;36794;51.212;6.980;2022-11-15T01:25:34;10.70;;;6.00;;
50821;SDS011;36794;51.212;6.980;2022-11-15T01:28:00;10.27;;;6.27;;
50821;SDS011;36794;51.212;6.980;2022-11-15T01:30:26;10.03;;;6.00;;
50821;SDS011;36794;51.212;6.980;2022-11-15T01:32:52;9.00;;;5.50;;
50821;SDS011;36794;51.212;6.980;2022-11-15T01:35:18;9.83;;;5.60;;
50821;SDS011;36794;51.212;6.980;2022-11-15T01:37:45;11.13;;;6.20;;
50821;SDS011;36794;51.212;6.980;2022-11-15T01:40:10;10.73;;;5.30;;
50821;SDS011;36794;51.212;6.980;2022-11-15T01:42:36;11.60;;;5.83;;
50821;SDS011;36794;51.212;6.980;2022-11-15T01:45:02;8.00;;;5.60;;
50821;SDS011;36794;51.212;6.980;2022-11-15T01:47:30;10.23;;;5.90;;
50821;SDS011;36794;51.212;6.980;2022-11-15T01:50:08;10.07;;;5.57;;
50821;SDS011;36794;51.212;6.980;2022-11-15T01:52:35;11.20;;;6.10;;
50821;SDS011;36794;51.212;6.980;2022-11-15T01:57:27;8.20;;;5.17;;
50821;SDS011;36794;51.212;6.980;2022-11-15T01:59:53;10.93;;;5.37;;
50821;SDS011;36794;51.212;6.980;2022-11-15T02:02:20;8.10;;;5.60;;
50821;SDS011;36794;51.212;6.980;2022-11-15T02:04:46;10.00;;;6.20;;
50821;SDS011;36794;51.212;6.980;2022-11-15T02:07:13;9.17;;;5.60;;
50821;SDS011;36794;51.212;6.980;2022-11-15T02:09:40;11.70;;;5.93;;
50821;SDS011;36794;51.212;6.980;2022-11-15T02:12:06;9.17;;;5.73;;
50821;SDS011;36794;51.212;6.980;2022-11-15T02:14:33;8.37;;;5.30;;
50821;SDS011;36794;51.212;6.980;2022-11-15T02:32:43;15.13;;;6.50;;
50821;SDS011;36794;51.212;6.980;2022-11-15T02:35:19;11.03;;;5.57;;
50821;SDS011;36794;51.212;6.980;2022-11-15T02:37:52;14.70;;;6.50;;
50821;SDS011;36794;51.212;6.980;2022-11-15T02:40:34;11.13;;;5.90;;
50821;SDS011;36794;51.212;6.980;2022-11-15T02:43:09;11.23;;;5.95;;
50821;SDS011;36794;51.212;6.980;2022-11-15T02:46:00;9.03;;;6.23;;
50821;SDS011;36794;51.212;6.980;2022-11-15T02:48:27;11.37;;;6.07;;
50821;SDS011;36794;51.212;6.980;2022-11-15T02:50:54;10.23;;;6.00;;
50821;SDS011;36794;51.212;6.980;2022-11-15T02:53:24;8.80;;;5.60;;
50821;SDS011;36794;51.212;6.980;2022-11-15T02:55:50;11.73;;;5.90;;
50821;SDS011;36794;51.212;6.980;2022-11-15T02:58:27;9.40;;;6.10;;
50821;SDS011;36794;51.212;6.980;2022-11-15T03:03:48;12.03;;;6.63;;
50821;SDS011;36794;51.212;6.980;2022-11-15T03:06:46;9.50;;;6.10;;
50821;SDS011;36794;51.212;6.980;2022-11-15T03:11:29;8.57;;;5.20;;
50821;SDS011;36794;51.212;6.980;2022-11-15T03:13:57;10.23;;;5.67;;
50821;SDS011;36794;51.212;6.980;2022-11-15T03:16:32;10.47;;;5.33;;
50821;SDS011;36794;51.212;6.980;2022-11-15T03:19:02;12.20;;;6.30;;
50821;SDS011;36794;51.212;6.980;2022-11-15T03:21:30;8.27;;;5.20;;
50821;SDS011;36794;51.212;6.980;2022-11-15T03:23:57;10.20;;;5.77;;
50821;SDS011;36794;51.212;6.980;2022-11-15T03:26:24;11.03;;;5.77;;
50821;SDS011;36794;51.212;6.980;2022-11-15T03:28:55;9.33;;;5.67;;
50821;SDS011;36794;51.212;6.980;2022-11-15T03:31:22;8.77;;;5.20;;
50821;SDS011;36794;51.212;6.980;2022-11-15T03:34:08;9.27;;;5.23;;
50821;SDS011;36794;51.212;6.980;2022-11-15T03:36:37;9.23;;;5.50;;
50821;SDS011;36794;51.212;6.980;2022-11-15T03:39:05;8.80;;;4.93;;
50821;SDS011;36794;51.212;6.980;2022-11-15T03:44:49;6.73;;;5.67;;
50821;SDS011;36794;51.212;6.980;2022-11-15T03:46:47;10.40;;;5.43;;
50821;SDS011;36794;51.212;6.980;2022-11-15T03:49:25;7.50;;;5.10;;
50821;SDS011;36794;51.212;6.980;2022-11-15T03:51:53;8.30;;;5.17;;
50821;SDS011;36794;51.212;6.980;2022-11-15T03:54:21;6.47;;;4.50;;
50821;SDS011;36794;51.212;6.980;2022-11-15T03:56:47;9.40;;;4.70;;
50821;SDS011;36794;51.212;6.980;2022-11-15T03:59:13;8.53;;;5.37;;
50821;SDS011;36794;51.212;6.980;2022-11-15T04:01:39;8.77;;;5.50;;
50821;SDS011;36794;51.212;6.980;2022-11-15T04:04:05;8.70;;;4.87;;
50821;SDS011;36794;51.212;6.980;2022-11-15T04:06:31;9.73;;;4.87;;
50821;SDS011;36794;51.212;6.980;2022-11-15T04:08:57;7.77;;;4.63;;
50821;SDS011;36794;51.212;6.980;2022-11-15T04:11:23;9.03;;;5.37;;
50821;SDS011;36794;51.212;6.980;2022-11-15T04:13:49;11.10;;;5.30;;
50821;SDS011;36794;51.212;6.980;2022-11-15T04:16:15;9.60;;;5.43;;
50821;SDS011;36794;51.212;6.980;2022-11-15T04:18:40;9.00;;;5.40;;
50821;SDS011;36794;51.212;6.980;2022-11-15T04:21:07;9.23;;;4.90;;
50821;SDS011;36794;51.212;6.980;2022-11-15T04:23:52;7.97;;;4.80;;
50821;SDS011;36794;51.212;6.980;2022-11-15T04:26:18;9.13;;;5.13;;
50821;SDS011;36794;51.212;6.980;2022-11-15T04:28:45;9.13;;;5.00;;
50821;SDS011;36794;51.212;6.980;2022-11-15T04:31:30;6.95;;;5.43;;
50821;SDS011;36794;51.212;6.980;2022-11-15T04:33:56;9.70;;;5.13;;
50821;SDS011;36794;51.212;6.980;2022-11-15T04:36:22;8.00;;;4.97;;
50821;SDS011;36794;51.212;6.980;2022-11-15T04:39:07;7.50;;;5.90;;
50821;SDS011;36794;51.212;6.980;2022-11-15T04:41:33;7.67;;;5.63;;
50821;SDS011;36794;51.212;6.980;2022-11-15T04:43:59;13.57;;;5.57;;
50821;SDS011;36794;51.212;6.980;2022-11-15T04:46:25;10.93;;;6.00;;
50821;SDS011;36794;51.212;6.980;2022-11-15T04:48:51;9.70;;;6.47;;
50821;SDS011;36794;51.212;6.980;2022-11-15T04:51:17;8.07;;;6.23;;
50821;SDS011;36794;51.212;6.980;2022-11-15T04:53:43;10.23;;;7.07;;
50821;SDS011;36794;51.212;6.980;2022-11-15T04:56:09;10.27;;;6.80;;
50821;SDS011;36794;51.212;6.980;2022-11-15T04:58:35;9.90;;;6.50;;
50821;SDS011;36794;51.212;6.980;2022-11-15T05:01:11;10.33;;;6.93;;
50821;SDS011;36794;51.212;6.980;2022-11-15T05:03:39;9.33;;;7.37;;
50821;SDS011;36794;51.212;6.980;2022-11-15T05:06:25;10.13;;;6.70;;
50821;SDS011;36794;51.212;6.980;2022-11-15T05:08:52;9.20;;;6.80;;
50821;SDS011;36794;51.212;6.980;2022-11-15T05:11:18;8.60;;;6.60;;
50821;SDS011;36794;51.212;6.980;2022-11-15T05:13:45;9.83;;;6.73;;
50821;SDS011;36794;51.212;6.980;2022-11-15T05:16:11;7.13;;;6.03;;
50821;SDS011;36794;51.212;6.980;2022-11-15T05:18:37;10.53;;;6.70;;
50821;SDS011;36794;51.212;6.980;2022-11-15T05:21:09;7.67;;;5.80;;
50821;SDS011;36794;51.212;6.980;2022-11-15T05:23:36;7.83;;;6.03;;
50821;SDS011;36794;51.212;6.980;2022-11-15T05:26:02;9.50;;;6.40;;
50821;SDS011;36794;51.212;6.980;2022-11-15T05:28:29;7.80;;;5.90;;
50821;SDS011;36794;51.212;6.980;2022-11-15T05:31:05;8.43;;;5.93;;
50821;SDS011;36794;51.212;6.980;2022-11-15T05:33:32;6.77;;;5.43;;
50821;SDS011;36794;51.212;6.980;2022-11-15T05:36:03;7.63;;;5.70;;
50821;SDS011;36794;51.212;6.980;2022-11-15T05:38:29;7.53;;;5.30;;
50821;SDS011;36794;51.212;6.980;2022-11-15T05:40:55;5.93;;;4.97;;
50821;SDS011;36794;51.212;6.980;2022-11-15T05:43:22;6.33;;;5.53;;
50821;SDS011;36794;51.212;6.980;2022-11-15T05:45:48;9.37;;;5.50;;
50821;SDS011;36794;51.212;6.980;2022-11-15T05:48:14;6.30;;;4.73;;
50821;SDS011;36794;51.212;6.980;2022-11-15T05:50:41;6.90;;;4.67;;
50821;SDS011;36794;51.212;6.980;2022-11-15T05:53:09;8.27;;;4.77;;
50821;SDS011;36794;51.212;6.980;2022-11-15T05:55:36;5.83;;;4.13;;
50821;SDS011;36794;51.212;6.980;2022-11-15T05:58:03;5.90;;;4.30;;
50821;SDS011;36794;51.212;6.980;2022-11-15T06:00:29;5.93;;;3.73;;
50821;SDS011;36794;51.212;6.980;2022-11-15T06:02:55;4.93;;;3.83;;
50821;SDS011;36794;51.212;6.980;2022-11-15T06:05:21;5.07;;;3.70;;
50821;SDS011;36794;51.212;6.980;2022-11-15T06:07:47;5.53;;;3.90;;
50821;SDS011;36794;51.212;6.980;2022-11-15T06:10:13;4.33;;;3.43;;
50821;SDS011;36794;51.212;6.980;2022-11-15T06:12:38;4.73;;;3.40;;
50821;SDS011;36794;51.212;6.980;2022-11-15T06:15:05;4.83;;;2.77;;
50821;SDS011;36794;51.212;6.980;2022-11-15T06:17:31;4.93;;;3.23;;
50821;SDS011;36794;51.212;6.980;2022-11-15T06:19:56;4.33;;;3.00;;
50821;SDS011;36794;51.212;6.980;2022-11-15T06:22:22;4.73;;;3.17;;
50821;SDS011;36794;51.212;6.980;2022-11-15T06:24:48;7.23;;;3.23;;
50821;SDS011;36794;51.212;6.980;2022-11-15T06:27:14;4.77;;;3.20;;
50821;SDS011;36794;51.212;6.980;2022-11-15T06:29:40;4.10;;;3.10;;
50821;SDS011;36794;51.212;6.980;2022-11-15T06:32:06;5.90;;;2.73;;
50821;SDS011;36794;51.212;6.980;2022-11-15T06:34:32;3.27;;;2.73;;
50821;SDS011;36794;51.212;6.980;2022-11-15T06:36:58;4.33;;;2.67;;
50821;SDS011;36794;51.212;6.980;2022-11-15T06:39:24;3.67;;;2.70;;
50821;SDS011;36794;51.212;6.980;2022-11-15T06:41:50;4.73;;;2.77;;
50821;SDS011;36794;51.212;6.980;2022-11-15T06:44:16;4.20;;;2.50;;
50821;SDS011;36794;51.212;6.980;2022-11-15T06:46:42;3.03;;;2.60;;
50821;SDS011;36794;51.212;6.980;2022-11-15T06:49:08;6.30;;;2.80;;
50821;SDS011;36794;51.212;6.980;2022-11-15T06:51:34;3.93;;;2.50;;
50821;SDS011;36794;51.212;6.980;2022-11-15T06:54:00;3.70;;;2.40;;
50821;SDS011;36794;51.212;6.980;2022-11-15T06:56:26;2.70;;;2.20;;
50821;SDS011;36794;51.212;6.980;2022-11-15T06:58:52;4.23;;;2.80;;
50821;SDS011;36794;51.212;6.980;2022-11-15T07:01:17;3.57;;;2.50;;
50821;SDS011;36794;51.212;6.980;2022-11-15T07:03:43;5.00;;;2.20;;
50821;SDS011;36794;51.212;6.980;2022-11-15T07:06:11;3.60;;;2.50;;
50821;SDS011;36794;51.212;6.980;2022-11-15T07:08:37;2.67;;;2.20;;
50821;SDS011;36794;51.212;6.980;2022-11-15T07:11:06;3.53;;;2.20;;
50821;SDS011;36794;51.212;6.980;2022-11-15T07:13:32;3.20;;;1.97;;
50821;SDS011;36794;51.212;6.980;2022-11-15T07:16:06;4.13;;;2.70;;
50821;SDS011;36794;51.212;6.980;2022-11-15T07:18:36;2.40;;;2.00;;
50821;SDS011;36794;51.212;6.980;2022-11-15T07:21:02;5.50;;;2.20;;
50821;SDS011;36794;51.212;6.980;2022-11-15T07:23:29;3.80;;;2.10;;
50821;SDS011;36794;51.212;6.980;2022-11-15T07:25:56;3.00;;;2.20;;
50821;SDS011;36794;51.212;6.980;2022-11-15T07:28:23;3.30;;;2.47;;
50821;SDS011;36794;51.212;6.980;2022-11-15T07:30:49;3.40;;;1.97;;
50821;SDS011;36794;51.212;6.980;2022-11-15T07:33:15;2.63;;;2.00;;
50821;SDS011;36794;51.212;6.980;2022-11-15T07:35:41;2.07;;;1.60;;
50821;SDS011;36794;51.212;6.980;2022-11-15T07:38:07;3.47;;;1.53;;
50821;SDS011;36794;51.212;6.980;2022-11-15T07:46:58;2.67;;;1.77;;
50821;SDS011;36794;51.212;6.980;2022-11-15T07:49:42;2.10;;;1.40;;
50821;SDS011;36794;51.212;6.980;2022-11-15T07:52:08;6.10;;;1.50;;
50821;SDS011;36794;51.212;6.980;2022-11-15T07:54:34;2.27;;;1.30;;
50821;SDS011;36794;51.212;6.980;2022-11-15T07:57:00;2.67;;;1.73;;
50821;SDS011;36794;51.212;6.980;2022-11-15T07:59:26;4.97;;;1.40;;
50821;SDS011;36794;51.212;6.980;2022-11-15T08:01:52;2.80;;;1.40;;
50821;SDS011;36794;51.212;6.980;2022-11-15T08:04:18;4.13;;;1.60;;
50821;SDS011;36794;51.212;6.980;2022-11-15T08:06:43;3.63;;;1.67;;
50821;SDS011;36794;51.212;6.980;2022-11-15T08:09:09;4.33;;;1.60;;
50821;SDS011;36794;51.212;6.980;2022-11-15T08:11:35;5.07;;;1.43;;
50821;SDS011;36794;51.212;6.980;2022-11-15T08:14:01;2.93;;;1.73;;
50821;SDS011;36794;51.212;6.980;2022-11-15T08:16:27;3.90;;;1.33;;
50821;SDS011;36794;51.212;6.980;2022-11-15T08:18:53;2.30;;;1.17;;
50821;SDS011;36794;51.212;6.980;2022-11-15T08:21:20;4.40;;;1.47;;
50821;SDS011;36794;51.212;6.980;2022-11-15T08:23:46;3.50;;;1.80;;
50821;SDS011;36794;51.212;6.980;2022-11-15T08:26:36;6.63;;;1.63;;
50821;SDS011;36794;51.212;6.980;2022-11-15T08:29:43;2.80;;;1.47;;
50821;SDS011;36794;51.212;6.980;2022-11-15T08:32:09;6.90;;;1.47;;
50821;SDS011;36794;51.212;6.980;2022-11-15T08:34:35;3.17;;;1.53;;
50821;SDS011;36794;51.212;6.980;2022-11-15T08:37:01;6.03;;;1.80;;
50821;SDS011;36794;51.212;6.980;2022-11-15T08:39:27;4.20;;;1.63;;
50821;SDS011;36794;51.212;6.980;2022-11-15T08:41:53;3.30;;;1.83;;
50821;SDS011;36794;51.212;6.980;2022-11-15T08:44:19;2.93;;;1.80;;
50821;SDS011;36794;51.212;6.980;2022-11-15T08:46:45;3.00;;;1.40;;
50821;SDS011;36794;51.212;6.980;2022-11-15T08:49:11;2.93;;;1.83;;
50821;SDS011;36794;51.212;6.980;2022-11-15T08:51:38;3.90;;;1.93;;
50821;SDS011;36794;51.212;6.980;2022-11-15T08:54:04;2.83;;;1.87;;
50821;SDS011;36794;51.212;6.980;2022-11-15T08:56:30;3.83;;;1.80;;
50821;SDS011;36794;51.212;6.980;2022-11-15T08:58:56;3.00;;;1.57;;
50821;SDS011;36794;51.212;6.980;2022-11-15T09:01:22;3.20;;;1.73;;
50821;SDS011;36794;51.212;6.980;2022-11-15T09:03:48;4.03;;;1.60;;
50821;SDS011;36794;51.212;6.980;2022-11-15T09:06:14;3.53;;;1.30;;
50821;SDS011;36794;51.212;6.980;2022-11-15T09:08:40;2.40;;;1.30;;
50821;SDS011;36794;51.212;6.980;2022-11-15T09:11:07;4.07;;;1.23;;
50821;SDS011;36794;51.212;6.980;2022-11-15T09:13:33;5.17;;;1.20;;
50821;SDS011;36794;51.212;6.980;2022-11-15T09:16:01;4.03;;;1.30;;
50821;SDS011;36794;51.212;6.980;2022-11-15T09:18:27;4.30;;;1.33;;
50821;SDS011;36794;51.212;6.980;2022-11-15T09:20:57;4.40;;;1.37;;
50821;SDS011;36794;51.212;6.980;2022-11-15T09:23:23;6.33;;;1.40;;
50821;SDS011;36794;51.212;6.980;2022-11-15T09:25:49;3.10;;;1.10;;
50821;SDS011;36794;51.212;6.980;2022-11-15T09:28:16;3.70;;;1.27;;
50821;SDS011;36794;51.212;6.980;2022-11-15T09:30:41;1.47;;;0.97;;
50821;SDS011;36794;51.212;6.980;2022-11-15T09:33:08;3.03;;;1.23;;
50821;SDS011;36794;51.212;6.980;2022-11-15T09:35:34;1.87;;;0.83;;
50821;SDS011;36794;51.212;6.980;2022-11-15T09:38:00;2.47;;;0.97;;
50821;SDS011;36794;51.212;6.980;2022-11-15T09:40:26;3.40;;;1.27;;
50821;SDS011;36794;51.212;6.980;2022-11-15T09:42:57;2.70;;;1.00;;
50821;SDS011;36794;51.212;6.980;2022-11-15T09:45:36;2.60;;;1.00;;
50821;SDS011;36794;51.212;6.980;2022-11-15T09:57:14;6.93;;;0.90;;
50821;SDS011;36794;51.212;6.980;2022-11-15T10:02:50;7.57;;;1.00;;
50821;SDS011;36794;51.212;6.980;2022-11-15T10:05:21;2.00;;;0.90;;
50821;SDS011;36794;51.212;6.980;2022-11-15T10:10:36;1.60;;;0.70;;
50821;SDS011;36794;51.212;6.980;2022-11-15T10:13:03;2.50;;;0.97;;
50821;SDS011;36794;51.212;6.980;2022-11-15T10:15:30;4.07;;;0.60;;
50821;SDS011;36794;51.212;6.980;2022-11-15T10:18:18;3.17;;;0.90;;
50821;SDS011;36794;51.212;6.980;2022-11-15T10:23:13;4.53;;;1.10;;
50821;SDS011;36794;51.212;6.980;2022-11-15T10:25:41;1.70;;;0.90;;
50821;SDS011;36794;51.212;6.980;2022-11-15T10:28:16;2.63;;;0.80;;
50821;SDS011;36794;51.212;6.980;2022-11-15T10:30:48;5.32;;;1.00;;
50821;SDS011;36794;51.212;6.980;2022-11-15T10:36:33;3.80;;;1.10;;
50821;SDS011;36794;51.212;6.980;2022-11-15T10:38:59;1.43;;;0.73;;
50821;SDS011;36794;51.212;6.980;2022-11-15T10:46:28;2.60;;;0.90;;
50821;SDS011;36794;51.212;6.980;2022-11-15T10:49:04;5.10;;;1.10;;
50821;SDS011;36794;51.212;6.980;2022-11-15T10:51:54;1.83;;;0.67;;
50821;SDS011;36794;51.212;6.980;2022-11-15T10:57:33;3.73;;;0.90;;
50821;SDS011;36794;51.212;6.980;2022-11-15T11:03:33;1.67;;;0.67;;
50821;SDS011;36794;51.212;6.980;2022-11-15T11:06:08;2.47;;;0.80;;
50821;SDS011;36794;51.212;6.980;2022-11-15T11:08:34;1.75;;;0.60;;
50821;SDS011;36794;51.212;6.980;2022-11-15T11:11:01;2.90;;;0.73;;
50821;SDS011;36794;51.212;6.980;2022-11-15T11:13:35;3.47;;;0.60;;
50821;SDS011;36794;51.212;6.980;2022-11-15T11:29:33;2.43;;;0.57;;
50821;SDS011;36794;51.212;6.980;2022-11-15T11:48:42;4.97;;;0.73;;
50821;SDS011;36794;51.212;6.980;2022-11-15T11:54:12;2.20;;;0.60;;
50821;SDS011;36794;51.212;6.980;2022-11-15T11:56:43;2.67;;;0.33;;
50821;SDS011;36794;51.212;6.980;2022-11-15T11:59:14;3.23;;;0.40;;
50821;SDS011;36794;51.212;6.980;2022-11-15T12:01:43;7.30;;;0.50;;
50821;SDS011;36794;51.212;6.980;2022-11-15T12:11:48;2.87;;;0.40;;
50821;SDS011;36794;51.212;6.980;2022-11-15T12:16:41;4.43;;;0.47;;
50821;SDS011;36794;51.212;6.980;2022-11-15T12:19:07;4.70;;;0.50;;
50821;SDS011;36794;51.212;6.980;2022-11-15T12:24:14;2.53;;;0.40;;
50821;SDS011;36794;51.212;6.980;2022-11-15T12:26:47;2.47;;;0.30;;
50821;SDS011;36794;51.212;6.980;2022-11-15T12:29:19;2.37;;;0.47;;
50821;SDS011;36794;51.212;6.980;2022-11-15T12:31:48;2.13;;;0.40;;
50821;SDS011;36794;51.212;6.980;2022-11-15T12:36:48;3.97;;;0.77;;
50821;SDS011;36794;51.212;6.980;2022-11-15T12:39:15;1.17;;;0.40;;
50821;SDS011;36794;51.212;6.980;2022-11-15T12:41:42;5.30;;;0.53;;
50821;SDS011;36794;51.212;6.980;2022-11-15T12:44:12;4.03;;;0.50;;
50821;SDS011;36794;51.212;6.980;2022-11-15T12:52:03;4.83;;;0.80;;
50821;SDS011;36794;51.212;6.980;2022-11-15T13:13:02;3.17;;;0.50;;
50821;SDS011;36794;51.212;6.980;2022-11-15T13:17:57;2.83;;;0.60;;
50821;SDS011;36794;51.212;6.980;2022-11-15T13:20:28;3.93;;;0.43;;
50821;SDS011;36794;51.212;6.980;2022-11-15T13:30:40;3.87;;;0.40;;
50821;SDS011;36794;51.212;6.980;2022-11-15T13:33:09;1.87;;;0.57;;
50821;SDS011;36794;51.212;6.980;2022-11-15T13:35:39;7.77;;;0.50;;
50821;SDS011;36794;51.212;6.980;2022-11-15T13:38:06;2.87;;;0.60;;
50821;SDS011;36794;51.212;6.980;2022-11-15T13:40:35;5.03;;;0.60;;
50821;SDS011;36794;51.212;6.980;2022-11-15T13:43:23;3.60;;;0.67;;
50821;SDS011;36794;51.212;6.980;2022-11-15T13:48:29;4.37;;;0.90;;
50821;SDS011;36794;51.212;6.980;2022-11-15T13:50:55;2.67;;;0.70;;
50821;SDS011;36794;51.212;6.980;2022-11-15T13:53:22;4.67;;;0.97;;
50821;SDS011;36794;51.212;6.980;2022-11-15T13:55:48;6.00;;;0.90;;
50821;SDS011;36794;51.212;6.980;2022-11-15T13:58:14;3.80;;;0.73;;
50821;SDS011;36794;51.212;6.980;2022-11-15T14:00:40;2.03;;;1.00;;
50821;SDS011;36794;51.212;6.980;2022-11-15T14:03:24;4.63;;;0.60;;
50821;SDS011;36794;51.212;6.980;2022-11-15T14:06:13;3.47;;;1.07;;
50821;SDS011;36794;51.212;6.980;2022-11-15T14:08:42;5.00;;;0.90;;
50821;SDS011;36794;51.212;6.980;2022-11-15T14:11:13;4.20;;;0.80;;
50821;SDS011;36794;51.212;6.980;2022-11-15T14:14:13;4.07;;;0.80;;
50821;SDS011;36794;51.212;6.980;2022-11-15T14:16:59;3.10;;;1.17;;
50821;SDS011;36794;51.212;6.980;2022-11-15T14:22:14;3.37;;;1.20;;
50821;SDS011;36794;51.212;6.980;2022-11-15T14:24:41;5.93;;;1.20;;
50821;SDS011;36794;51.212;6.980;2022-11-15T14:29:49;4.27;;;1.00;;
50821;SDS011;36794;51.212;6.980;2022-11-15T14:32:17;4.03;;;1.20;;
50821;SDS011;36794;51.212;6.980;2022-11-15T14:34:44;9.73;;;1.10;;
50821;SDS011;36794;51.212;6.980;2022-11-15T14:37:26;6.00;;;1.53;;
50821;SDS011;36794;51.212;6.980;2022-11-15T14:39:52;3.20;;;1.20;;
50821;SDS011;36794;51.212;6.980;2022-11-15T14:42:19;5.47;;;1.30;;
50821;SDS011;36794;51.212;6.980;2022-11-15T14:44:45;2.20;;;1.20;;
50821;SDS011;36794;51.212;6.980;2022-11-15T14:47:12;5.50;;;1.40;;
50821;SDS011;36794;51.212;6.980;2022-11-15T14:49:38;6.93;;;1.37;;
50821;SDS011;36794;51.212;6.980;2022-11-15T14:52:07;3.07;;;1.40;;
50821;SDS011;36794;51.212;6.980;2022-11-15T14:54:37;3.87;;;1.40;;
50821;SDS011;36794;51.212;6.980;2022-11-15T14:57:03;6.17;;;1.30;;
50821;SDS011;36794;51.212;6.980;2022-11-15T14:59:29;3.17;;;1.50;;
50821;SDS011;36794;51.212;6.980;2022-11-15T15:01:55;1.80;;;1.07;;
50821;SDS011;36794;51.212;6.980;2022-11-15T15:04:21;2.37;;;1.20;;
50821;SDS011;36794;51.212;6.980;2022-11-15T15:06:47;2.77;;;1.50;;
50821;SDS011;36794;51.212;6.980;2022-11-15T15:09:12;4.10;;;1.20;;
50821;SDS011;36794;51.212;6.980;2022-11-15T15:11:38;2.67;;;1.20;;
50821;SDS011;36794;51.212;6.980;2022-11-15T15:14:04;1.60;;;1.00;;
50821;SDS011;36794;51.212;6.980;2022-11-15T15:16:30;3.67;;;1.13;;
50821;SDS011;36794;51.212;6.980;2022-11-15T15:18:56;2.57;;;0.90;;
50821;SDS011;36794;51.212;6.980;2022-11-15T15:21:26;3.97;;;1.77;;
50821;SDS011;36794;51.212;6.980;2022-11-15T15:23:52;3.33;;;1.17;;
50821;SDS011;36794;51.212;6.980;2022-11-15T15:26:25;2.53;;;1.13;;
50821;SDS011;36794;51.212;6.980;2022-11-15T15:28:51;4.23;;;1.20;;
50821;SDS011;36794;51.212;6.980;2022-11-15T15:31:17;3.50;;;1.20;;
50821;SDS011;36794;51.212;6.980;2022-11-15T15:33:43;3.50;;;0.90;;
50821;SDS011;36794;51.212;6.980;2022-11-15T15:36:13;4.97;;;1.23;;
50821;SDS011;36794;51.212;6.980;2022-11-15T15:38:39;3.90;;;1.13;;
50821;SDS011;36794;51.212;6.980;2022-11-15T15:41:15;2.63;;;0.93;;
50821;SDS011;36794;51.212;6.980;2022-11-15T15:43:41;2.60;;;1.13;;
50821;SDS011;36794;51.212;6.980;2022-11-15T15:46:09;3.00;;;0.93;;
50821;SDS011;36794;51.212;6.980;2022-11-15T15:48:35;6.73;;;1.30;;
50821;SDS011;36794;51.212;6.980;2022-11-15T15:51:03;3.73;;;1.07;;
50821;SDS011;36794;51.212;6.980;2022-11-15T15:53:29;12.30;;;1.37;;
50821;SDS011;36794;51.212;6.980;2022-11-15T15:55:55;4.70;;;1.07;;
50821;SDS011;36794;51.212;6.980;2022-11-15T15:58:21;4.53;;;1.03;;
50821;SDS011;36794;51.212;6.980;2022-11-15T16:00:47;4.63;;;1.30;;
50821;SDS011;36794;51.212;6.980;2022-11-15T16:03:13;2.20;;;1.10;;
50821;SDS011;36794;51.212;6.980;2022-11-15T16:05:39;4.70;;;1.30;;
50821;SDS011;36794;51.212;6.980;2022-11-15T16:08:05;2.80;;;1.03;;
50821;SDS011;36794;51.212;6.980;2022-11-15T16:10:32;3.57;;;1.30;;
50821;SDS011;36794;51.212;6.980;2022-11-15T16:12:59;3.10;;;1.10;;
50821;SDS011;36794;51.212;6.980;2022-11-15T16:15:26;1.70;;;1.10;;
50821;SDS011;36794;51.212;6.980;2022-11-15T16:17:53;3.70;;;1.20;;
50821;SDS011;36794;51.212;6.980;2022-11-15T16:20:36;4.27;;;1.40;;
50821;SDS011;36794;51.212;6.980;2022-11-15T16:23:06;5.07;;;1.23;;
50821;SDS011;36794;51.212;6.980;2022-11-15T16:25:37;3.13;;;1.10;;
50821;SDS011;36794;51.212;6.980;2022-11-15T16:28:04;2.70;;;1.40;;
50821;SDS011;36794;51.212;6.980;2022-11-15T16:30:29;4.40;;;1.33;;
50821;SDS011;36794;51.212;6.980;2022-11-15T16:32:55;4.87;;;1.40;;
50821;SDS011;36794;51.212;6.980;2022-11-15T16:35:21;2.63;;;1.33;;
50821;SDS011;36794;51.212;6.980;2022-11-15T16:37:47;7.33;;;1.27;;
50821;SDS011;36794;51.212;6.980;2022-11-15T16:40:26;4.63;;;1.30;;
50821;SDS011;36794;51.212;6.980;2022-11-15T16:42:52;4.13;;;1.30;;
50821;SDS011;36794;51.212;6.980;2022-11-15T16:45:20;5.10;;;1.20;;
50821;SDS011;36794;51.212;6.980;2022-11-15T16:47:46;3.90;;;1.30;;
50821;SDS011;36794;51.212;6.980;2022-11-15T16:50:19;3.50;;;1.33;;
50821;SDS011;36794;51.212;6.980;2022-11-15T16:52:49;4.33;;;1.20;;
50821;SDS011;36794;51.212;6.980;2022-11-15T16:55:15;4.00;;;1.23;;
50821;SDS011;36794;51.212;6.980;2022-11-15T16:57:41;3.97;;;1.20;;
50821;SDS011;36794;51.212;6.980;2022-11-15T17:00:09;1.77;;;1.17;;
50821;SDS011;36794;51.212;6.980;2022-11-15T17:02:36;2.73;;;1.20;;
50821;SDS011;36794;51.212;6.980;2022-11-15T17:05:02;3.97;;;1.40;;
50821;SDS011;36794;51.212;6.980;2022-11-15T17:07:28;1.97;;;1.00;;
50821;SDS011;36794;51.212;6.980;2022-11-15T17:09:54;2.53;;;1.00;;
50821;SDS011;36794;51.212;6.980;2022-11-15T17:12:20;5.60;;;1.10;;
50821;SDS011;36794;51.212;6.980;2022-11-15T17:14:46;1.67;;;0.87;;
50821;SDS011;36794;51.212;6.980;2022-11-15T17:17:12;3.63;;;1.20;;
50821;SDS011;36794;51.212;6.980;2022-11-15T17:19:37;2.37;;;0.97;;
50821;SDS011;36794;51.212;6.980;2022-11-15T17:22:03;2.30;;;1.07;;
50821;SDS011;36794;51.212;6.980;2022-11-15T17:24:29;3.70;;;1.20;;
50821;SDS011;36794;51.212;6.980;2022-11-15T17:26:55;2.40;;;1.03;;